Time;durP1;ratioP1;P1;durP2;ratioP2;P2;SDS_P1;SDS_P2;PMS_P1;PMS_P2;Temp;Humidity;BMP_temperature;BMP_pressure;BME280_temperature;BME280_humidity;BME280_pressure;Samples;Min_cycle;Max_cycle;Signal;HPM_P1;HPM_P2
2021/09/25 00:00:01;;;;;;;10.93;8.32;;;;;;;17.63;67.07;98762.25;5052396;28;20021;-50
2021/09/25 00:02:27;;;;;;;18.85;8.73;;;;;;;17.99;66.26;98755.56;5053660;28;20402;-50
2021/09/25 00:04:52;;;;;;;12.40;8.18;;;;;;;18.19;65.19;98756.84;5053607;28;20025;-51
2021/09/25 00:07:18;;;;;;;12.68;6.72;;;;;;;18.16;64.49;98743.00;5053512;28;20498;-50
2021/09/25 00:09:43;;;;;;;14.45;8.60;;;;;;;17.94;64.91;98745.66;5052269;28;20513;-50
2021/09/25 00:12:11;;;;;;;9.95;7.47;;;;;;;17.98;64.89;98743.34;5052126;28;20021;-50
2021/09/25 00:14:38;;;;;;;10.43;6.93;;;;;;;18.17;64.63;98735.88;5052158;28;20017;-50
2021/09/25 00:17:09;;;;;;;11.40;7.18;;;;;;;18.25;63.40;98739.91;5053412;28;20445;-50
2021/09/25 00:19:36;;;;;;;9.02;7.03;;;;;;;17.99;63.26;98747.59;5053436;28;20025;-50
2021/09/25 00:22:02;;;;;;;10.30;7.40;;;;;;;17.78;64.62;98746.50;5053119;28;20029;-51
2021/09/25 00:24:28;;;;;;;11.45;7.80;;;;;;;17.96;64.48;98753.41;5053227;28;20104;-50
2021/09/25 00:26:53;;;;;;;11.25;8.48;;;;;;;17.94;64.14;98750.97;5051836;28;20472;-50
2021/09/25 00:29:19;;;;;;;10.63;8.18;;;;;;;17.80;64.27;98751.56;5053160;28;20018;-49
2021/09/25 00:31:45;;;;;;;9.73;8.40;;;;;;;17.50;64.82;98756.19;5052057;28;20483;-50
2021/09/25 00:34:12;;;;;;;20.83;18.70;;;;;;;17.41;65.30;98756.88;5053044;28;20108;-50
2021/09/25 00:36:38;;;;;;;10.10;8.77;;;;;;;17.35;65.39;98753.34;5053003;28;20024;-50
2021/09/25 00:39:04;;;;;;;13.73;7.85;;;;;;;17.26;65.85;98760.88;5053030;28;20399;-50
2021/09/25 00:41:30;;;;;;;12.95;9.65;;;;;;;17.23;65.91;98756.09;5052874;28;20025;-50
2021/09/25 00:43:56;;;;;;;10.60;9.13;;;;;;;17.21;66.08;98762.69;5052923;28;20044;-50
2021/09/25 00:46:22;;;;;;;13.40;7.57;;;;;;;17.22;66.14;98756.31;5052823;28;20033;-50
2021/09/25 00:48:49;;;;;;;11.48;7.57;;;;;;;17.13;66.38;98756.72;5052728;28;20111;-50
2021/09/25 00:51:16;;;;;;;9.98;7.07;;;;;;;17.08;66.62;98769.09;5051357;28;20025;-50
2021/09/25 00:53:42;;;;;;;12.93;6.38;;;;;;;17.18;66.59;98763.94;5052710;28;20046;-50
2021/09/25 00:56:09;;;;;;;15.38;13.95;;;;;;;17.26;66.28;98757.44;5052869;28;20036;-50
2021/09/25 00:58:37;;;;;;;9.63;7.80;;;;;;;17.28;66.29;98758.78;5052233;28;20067;-50
2021/09/25 01:01:04;;;;;;;10.07;7.38;;;;;;;17.22;66.00;98751.81;5052568;28;20032;-50
2021/09/25 01:03:29;;;;;;;9.30;7.55;;;;;;;17.04;66.46;98752.06;5052509;28;20550;-50
2021/09/25 01:05:55;;;;;;;10.15;9.13;;;;;;;16.90;66.94;98752.38;5051129;28;20147;-50
2021/09/25 01:08:23;;;;;;;21.85;12.40;;;;;;;16.90;67.13;98749.72;5052321;28;20025;-50
2021/09/25 01:10:54;;;;;;;10.32;8.15;;;;;;;16.85;67.39;98749.63;5052600;28;20040;-50
2021/09/25 01:13:21;;;;;;;15.52;10.45;;;;;;;16.85;67.36;98748.84;5052391;28;20028;-51
2021/09/25 01:15:47;;;;;;;9.70;8.57;;;;;;;17.07;67.14;98744.44;5050949;28;20052;-50
2021/09/25 01:18:13;;;;;;;12.27;7.50;;;;;;;17.11;66.33;98734.94;5052268;28;20021;-50
2021/09/25 01:20:39;;;;;;;9.50;7.70;;;;;;;16.90;66.65;98735.66;5050991;28;20064;-50
2021/09/25 01:23:05;;;;;;;7.93;6.65;;;;;;;16.65;67.58;98738.66;5050630;28;20484;-50
2021/09/25 01:25:32;;;;;;;10.15;5.85;;;;;;;16.47;68.37;98737.81;5052214;28;20021;-50
2021/09/25 01:27:59;;;;;;;10.52;6.22;;;;;;;16.36;68.81;98733.38;5052068;28;20028;-50
2021/09/25 01:30:24;;;;;;;13.50;6.15;;;;;;;16.37;69.01;98722.53;5052130;28;20021;-50
2021/09/25 01:32:52;;;;;;;10.23;6.72;;;;;;;16.47;68.92;98724.56;5050767;28;20048;-50
2021/09/25 01:35:20;;;;;;;9.32;5.32;;;;;;;16.44;68.74;98718.94;5051893;28;20192;-50
2021/09/25 01:37:48;;;;;;;9.18;5.32;;;;;;;16.40;69.19;98718.63;5052261;28;20398;-50
2021/09/25 01:40:15;;;;;;;13.20;10.15;;;;;;;16.34;69.32;98711.63;5050553;28;20017;-50
2021/09/25 01:42:41;;;;;;;16.88;12.23;;;;;;;16.32;69.74;98719.81;5051842;28;20036;-50
2021/09/25 01:45:07;;;;;;;11.70;6.97;;;;;;;16.33;69.72;98712.66;5050503;28;20017;-50
2021/09/25 01:47:33;;;;;;;12.85;6.00;;;;;;;16.27;70.05;98716.25;5051994;28;20025;-50
2021/09/25 01:50:01;;;;;;;11.50;5.88;;;;;;;16.23;70.13;98715.13;5051744;28;20043;-50
2021/09/25 01:52:28;;;;;;;6.15;5.55;;;;;;;16.16;70.50;98712.63;5050406;28;20025;-50
2021/09/25 01:54:54;;;;;;;7.63;5.63;;;;;;;16.11;70.56;98708.00;5051776;28;20033;-50
2021/09/25 01:57:23;;;;;;;14.63;10.18;;;;;;;16.12;70.70;98712.28;5050341;28;20033;-50
2021/09/25 01:59:49;;;;;;;10.60;6.20;;;;;;;16.18;70.72;98715.84;5051702;28;20727;-50
2021/09/25 02:02:15;;;;;;;8.93;6.28;;;;;;;16.37;70.43;98713.78;5051616;28;20502;-50
2021/09/25 02:04:47;;;;;;;12.35;5.90;;;;;;;16.44;69.96;98716.28;5051666;28;20025;-50
2021/09/25 02:07:15;;;;;;;8.55;5.60;;;;;;;16.34;70.18;98711.63;5051570;28;20078;-50
2021/09/25 02:09:41;;;;;;;9.15;6.05;;;;;;;16.23;70.21;98709.81;5053635;28;20371;-50
2021/09/25 02:12:08;;;;;;;8.98;6.00;;;;;;;16.17;70.71;98711.56;5055786;28;20021;-50
2021/09/25 02:14:33;;;;;;;11.40;8.82;;;;;;;16.17;70.81;98714.22;5055744;28;20046;-50
2021/09/25 02:16:59;;;;;;;7.43;5.22;;;;;;;16.21;70.57;98707.41;5055648;28;20112;-50
2021/09/25 02:19:25;;;;;;;9.10;5.13;;;;;;;16.20;70.97;98705.81;5055644;28;20028;-50
2021/09/25 02:21:50;;;;;;;8.23;5.35;;;;;;;16.25;71.13;98702.44;5055542;28;20108;-50
2021/09/25 02:24:16;;;;;;;17.27;13.65;;;;;;;16.25;71.06;98697.16;5055328;28;20070;-50
2021/09/25 02:26:43;;;;;;;9.65;6.97;;;;;;;16.23;71.04;98693.94;5055489;28;20021;-50
2021/09/25 02:29:09;;;;;;;9.50;6.47;;;;;;;16.28;71.04;98704.59;5054058;28;20036;-50
2021/09/25 02:31:35;;;;;;;9.90;6.03;;;;;;;16.33;70.71;98704.72;5055357;28;20021;-50
2021/09/25 02:34:01;;;;;;;5.65;5.05;;;;;;;16.38;70.67;98699.53;5055370;28;20025;-50
2021/09/25 02:36:26;;;;;;;8.70;6.38;;;;;;;16.40;70.57;98694.78;5055290;28;20104;-50
2021/09/25 02:38:52;;;;;;;10.07;6.18;;;;;;;16.43;70.43;98696.94;5055303;28;20555;-50
2021/09/25 02:41:18;;;;;;;8.90;5.47;;;;;;;16.45;70.32;98689.56;5055255;28;20028;-50
2021/09/25 02:43:43;;;;;;;11.75;4.88;;;;;;;16.50;70.21;98684.38;5055183;28;20025;-50
2021/09/25 02:46:09;;;;;;;7.25;6.03;;;;;;;16.48;70.45;98683.81;5053774;28;20027;-50
2021/09/25 02:48:35;;;;;;;6.43;5.82;;;;;;;16.51;70.30;98687.81;5055008;28;20020;-50
2021/09/25 02:51:01;;;;;;;9.98;5.72;;;;;;;16.60;70.35;98682.91;5053621;28;20025;-50
2021/09/25 02:53:26;;;;;;;9.55;5.85;;;;;;;16.88;69.92;98679.44;5055035;28;20021;-50
2021/09/25 02:55:52;;;;;;;11.05;5.60;;;;;;;17.27;69.05;98677.63;5053646;28;20021;-50
2021/09/25 02:58:18;;;;;;;11.13;6.28;;;;;;;17.93;67.61;98679.56;5053565;28;20442;-50
2021/09/25 03:00:44;;;;;;;7.45;5.10;;;;;;;18.52;65.38;98673.50;5054881;28;20043;-50
2021/09/25 03:03:10;;;;;;;15.68;9.05;;;;;;;18.48;64.62;98672.41;5053476;28;20028;-50
2021/09/25 03:05:35;;;;;;;6.28;5.45;;;;;;;18.16;64.84;98670.50;5054687;28;20106;-50
2021/09/25 03:08:01;;;;;;;5.65;5.10;;;;;;;17.88;65.34;98664.34;5054640;28;20029;-50
2021/09/25 03:10:27;;;;;;;14.20;11.07;;;;;;;17.77;66.07;98668.72;5054598;28;20086;-49
2021/09/25 03:12:52;;;;;;;16.60;7.15;;;;;;;18.11;65.90;98665.94;5054619;28;20145;-50
2021/09/25 03:15:18;;;;;;;9.93;5.07;;;;;;;18.39;64.81;98671.25;5053232;28;20032;-50
2021/09/25 03:17:44;;;;;;;10.80;6.13;;;;;;;18.47;64.27;98662.81;5054524;28;20078;-50
2021/09/25 03:20:10;;;;;;;16.08;8.40;;;;;;;18.71;63.83;98665.94;5054157;28;20060;-50
2021/09/25 03:22:36;;;;;;;12.68;6.75;;;;;;;18.76;63.33;98663.34;5052854;28;20048;-51
2021/09/25 03:25:07;;;;;;;34.33;11.40;;;;;;;18.87;63.22;98662.38;5054435;28;20553;-50
2021/09/25 03:27:34;;;;;;;8.43;5.10;;;;;;;19.14;62.14;98669.50;5054368;28;20029;-50
2021/09/25 03:30:00;;;;;;;10.75;5.47;;;;;;;18.94;62.26;98673.59;5054288;28;20021;-50
2021/09/25 03:32:26;;;;;;;9.68;8.10;;;;;;;18.62;62.63;98670.94;5052921;28;20021;-50
2021/09/25 03:34:52;;;;;;;12.55;8.82;;;;;;;18.36;63.29;98662.72;5054484;28;20041;-50
2021/09/25 03:37:17;;;;;;;11.32;9.50;;;;;;;18.07;64.12;98667.50;5054105;28;20028;-50
2021/09/25 03:39:43;;;;;;;9.40;5.93;;;;;;;17.82;64.80;98667.97;5054127;28;20025;-50
2021/09/25 03:42:09;;;;;;;12.80;5.60;;;;;;;17.86;65.26;98678.94;5054069;28;20609;-50
2021/09/25 03:44:34;;;;;;;9.70;5.70;;;;;;;17.96;65.15;98679.84;5054044;28;20056;-50
2021/09/25 03:47:00;;;;;;;6.85;5.50;;;;;;;18.15;64.89;98688.28;5053981;28;20021;-50
2021/09/25 03:49:26;;;;;;;8.80;5.70;;;;;;;18.46;64.00;98688.59;5053989;28;20029;-50
2021/09/25 03:51:52;;;;;;;24.02;21.80;;;;;;;18.34;63.81;98672.81;5053844;28;20032;-50
2021/09/25 03:54:18;;;;;;;6.53;5.78;;;;;;;18.07;64.48;98678.13;5053883;28;20100;-50
2021/09/25 03:56:44;;;;;;;7.95;4.97;;;;;;;17.78;65.41;98685.44;5053839;28;20051;-50
2021/09/25 03:59:09;;;;;;;7.68;5.93;;;;;;;17.46;66.49;98670.19;5053784;28;20087;-50
2021/09/25 04:01:35;;;;;;;8.82;5.30;;;;;;;17.23;67.52;98684.47;5053748;28;20513;-50
2021/09/25 04:04:01;;;;;;;9.23;5.53;;;;;;;17.14;67.52;98694.69;5052667;28;20033;-50
2021/09/25 04:06:26;;;;;;;9.30;6.25;;;;;;;17.26;67.96;98697.22;5053650;28;20022;-50
2021/09/25 04:08:54;;;;;;;8.27;4.45;;;;;;;17.84;67.16;98691.66;5053506;28;20445;-50
2021/09/25 04:11:20;;;;;;;8.82;5.25;;;;;;;18.11;65.50;98687.19;5052255;28;20032;-50
2021/09/25 04:13:46;;;;;;;21.15;8.00;;;;;;;18.06;65.04;98679.16;5052470;28;20029;-50
2021/09/25 04:16:11;;;;;;;6.05;5.38;;;;;;;17.81;65.44;98676.19;5053456;28;20060;-50
2021/09/25 04:18:37;;;;;;;6.97;4.75;;;;;;;17.59;66.52;98679.66;5052094;28;20033;-50
2021/09/25 04:21:03;;;;;;;6.43;4.97;;;;;;;17.35;67.65;98679.06;5052000;28;20024;-50
2021/09/25 04:23:29;;;;;;;8.95;4.85;;;;;;;17.21;68.29;98665.34;5053146;28;20045;-49
2021/09/25 04:25:54;;;;;;;8.45;6.25;;;;;;;17.12;68.69;98669.44;5051962;28;20029;-50
2021/09/25 04:28:20;;;;;;;6.45;4.75;;;;;;;17.05;69.12;98679.44;5051825;28;20394;-50
2021/09/25 04:30:49;;;;;;;7.47;4.90;;;;;;;17.02;69.34;98666.66;5051865;28;20048;-50
2021/09/25 04:33:16;;;;;;;9.27;7.65;;;;;;;17.02;69.73;98666.66;5052360;28;20036;-50
2021/09/25 04:35:42;;;;;;;6.95;5.18;;;;;;;17.04;69.34;98665.34;5051776;28;20568;-50
2021/09/25 04:38:07;;;;;;;11.88;4.93;;;;;;;17.02;69.39;98664.78;5053018;28;20029;-50
2021/09/25 04:40:34;;;;;;;8.50;5.00;;;;;;;17.07;69.69;98672.03;5053032;28;20021;-50
2021/09/25 04:43:01;;;;;;;9.80;5.63;;;;;;;17.13;69.54;98665.75;5052936;28;20033;-50
2021/09/25 04:45:28;;;;;;;8.48;4.57;;;;;;;17.21;69.59;98667.19;5052875;28;20013;-50
2021/09/25 04:47:54;;;;;;;6.50;4.80;;;;;;;17.23;69.30;98673.88;5051422;28;20025;-50
2021/09/25 04:50:20;;;;;;;7.28;4.65;;;;;;;17.28;69.22;98671.25;5052780;28;20567;-50
2021/09/25 04:52:47;;;;;;;7.07;4.95;;;;;;;17.35;68.95;98669.25;5051527;28;20028;-50
2021/09/25 04:55:13;;;;;;;9.60;5.95;;;;;;;17.45;69.02;98671.25;5052652;28;20126;-50
2021/09/25 04:57:40;;;;;;;8.52;5.03;;;;;;;17.64;68.51;98676.25;5051328;28;20044;-50
2021/09/25 05:00:07;;;;;;;8.73;5.88;;;;;;;17.75;68.22;98683.31;5052584;28;20021;-50
2021/09/25 05:02:33;;;;;;;5.20;4.38;;;;;;;17.85;67.84;98690.59;5051251;28;20103;-50
2021/09/25 05:04:59;;;;;;;8.40;6.07;;;;;;;18.07;67.67;98696.72;5052471;28;20491;-50
2021/09/25 05:07:25;;;;;;;17.23;7.55;;;;;;;18.50;66.76;98700.31;5051115;28;20039;-50
2021/09/25 05:09:50;;;;;;;8.65;4.97;;;;;;;18.85;65.37;98693.72;5051130;28;20145;-50
2021/09/25 05:12:16;;;;;;;9.77;5.22;;;;;;;18.76;64.77;98693.38;5051073;28;20025;-51
2021/09/25 05:14:43;;;;;;;8.52;5.57;;;;;;;18.54;65.23;98690.78;5052348;28;20107;-50
2021/09/25 05:17:09;;;;;;;7.65;4.63;;;;;;;18.30;65.67;98689.50;5050927;28;20025;-50
2021/09/25 05:19:34;;;;;;;7.60;5.28;;;;;;;18.12;65.98;98696.75;5052201;28;20104;-50
2021/09/25 05:22:01;;;;;;;7.38;5.07;;;;;;;17.98;66.71;98692.09;5052162;28;20029;-50
2021/09/25 05:24:26;;;;;;;7.80;5.18;;;;;;;17.85;67.02;98685.28;5051122;28;20044;-50
2021/09/25 05:26:55;;;;;;;7.72;4.32;;;;;;;17.73;67.54;98680.88;5050788;28;20033;-50
2021/09/25 05:29:21;;;;;;;5.90;4.45;;;;;;;17.60;67.89;98680.44;5051985;28;20028;-50
2021/09/25 05:31:47;;;;;;;9.32;6.97;;;;;;;17.51;68.10;98691.50;5052087;28;20029;-50
2021/09/25 05:34:13;;;;;;;5.50;4.55;;;;;;;17.57;68.05;98695.00;5050765;28;20052;-50
2021/09/25 05:36:38;;;;;;;7.47;4.72;;;;;;;17.75;67.96;98693.91;5052016;28;20490;-50
2021/09/25 05:39:07;;;;;;;7.35;4.93;;;;;;;17.92;67.50;98688.56;5050684;28;20509;-50
2021/09/25 05:41:33;;;;;;;27.63;21.92;;;;;;;18.36;67.30;98688.50;5050607;28;20112;-51
2021/09/25 05:43:58;;;;;;;14.35;7.20;;;;;;;18.93;65.72;98681.81;5051852;28;20107;-50
2021/09/25 05:46:24;;;;;;;7.68;4.43;;;;;;;19.50;63.93;98696.31;5050541;28;20020;-50
2021/09/25 05:48:52;;;;;;;26.35;23.48;;;;;;;19.67;62.99;98696.91;5051794;28;20029;-49
2021/09/25 05:51:21;;;;;;;17.70;9.35;;;;;;;20.04;62.48;98698.69;5052050;28;20055;-50
2021/09/25 05:53:48;;;;;;;26.30;23.83;;;;;;;20.24;61.06;98697.94;5051762;28;20033;-52
2021/09/25 05:56:14;;;;;;;6.28;5.30;;;;;;;20.13;61.09;98690.97;5051774;28;20017;-50
2021/09/25 05:58:40;;;;;;;6.35;5.07;;;;;;;20.15;61.08;98702.97;5050437;28;20029;-50
2021/09/25 06:01:06;;;;;;;12.68;9.18;;;;;;;19.97;60.71;98702.66;5051688;28;20067;-50
2021/09/25 06:03:32;;;;;;;7.85;4.65;;;;;;;19.81;61.52;98693.81;5051687;28;20025;-51
2021/09/25 06:05:57;;;;;;;10.38;5.60;;;;;;;19.72;61.73;98694.31;5051656;28;20111;-50
2021/09/25 06:08:23;;;;;;;13.63;7.75;;;;;;;19.80;62.10;98690.34;5050294;28;20058;-50
2021/09/25 06:10:49;;;;;;;14.38;9.00;;;;;;;20.28;61.55;98695.53;5051588;28;20021;-50
2021/09/25 06:13:15;;;;;;;7.97;4.63;;;;;;;20.92;59.77;98696.97;5050352;28;20028;-50
2021/09/25 06:15:40;;;;;;;9.35;7.38;;;;;;;21.48;60.47;98677.41;5050223;28;20490;-48
2021/09/25 06:18:06;;;;;;;11.35;7.72;;;;;;;21.96;58.99;98685.75;5050290;28;20035;-48
2021/09/25 06:20:32;;;;;;;15.35;8.88;;;;;;;22.19;58.79;98680.81;5050296;28;20079;-48
2021/09/25 06:22:58;;;;;;;13.70;9.32;;;;;;;22.22;57.76;98681.06;5051401;28;20052;-49
2021/09/25 06:25:24;;;;;;;8.48;5.57;;;;;;;22.21;56.75;98690.16;5051496;28;20025;-49
2021/09/25 06:27:50;;;;;;;14.00;7.10;;;;;;;22.32;55.69;98685.59;5050098;28;20159;-48
2021/09/25 06:30:15;;;;;;;15.90;7.90;;;;;;;22.69;55.48;98681.56;5051441;28;20419;-49
2021/09/25 06:32:41;;;;;;;11.38;7.15;;;;;;;23.13;52.98;98684.16;5050145;28;20021;-48
2021/09/25 06:35:09;;;;;;;35.47;28.65;;;;;;;23.20;53.11;98689.19;5051358;28;20399;-49
2021/09/25 06:37:34;;;;;;;40.72;28.40;;;;;;;23.73;52.20;98686.44;5051389;28;20076;-49
2021/09/25 06:40:00;;;;;;;72.45;56.13;;;;;;;24.04;50.75;98678.03;5049998;28;20115;-49
2021/09/25 06:42:26;;;;;;;87.88;47.50;;;;;;;23.98;51.71;98675.72;5051363;28;20510;-48
2021/09/25 06:44:52;;;;;;;16.80;8.32;;;;;;;24.40;50.41;98684.78;5051263;28;20095;-49
2021/09/25 06:47:17;;;;;;;25.58;15.48;;;;;;;25.04;48.92;98693.19;5049917;28;20032;-49
2021/09/25 06:49:43;;;;;;;12.98;7.43;;;;;;;25.14;48.15;98682.25;5050072;28;20021;-48
2021/09/25 06:52:10;;;;;;;14.13;9.30;;;;;;;24.89;48.81;98678.94;5049878;28;20024;-49
2021/09/25 06:54:37;;;;;;;11.98;5.47;;;;;;;24.60;49.19;98679.13;5051314;28;20025;-49
2021/09/25 06:57:04;;;;;;;5.63;4.55;;;;;;;24.33;49.04;98685.94;5054903;28;20052;-49
2021/09/25 06:59:33;;;;;;;5.90;4.45;;;;;;;24.15;49.48;98689.44;5053650;28;20032;-48
2021/09/25 07:01:58;;;;;;;8.55;4.88;;;;;;;24.49;49.05;98693.78;5054874;28;20032;-49
2021/09/25 07:04:24;;;;;;;15.20;8.25;;;;;;;25.05;48.73;98697.44;5054863;28;20094;-49
2021/09/25 07:06:50;;;;;;;13.68;6.03;;;;;;;25.42;47.64;98693.06;5054714;28;20108;-49
2021/09/25 07:09:16;;;;;;;11.68;6.20;;;;;;;25.83;46.86;98686.88;5053409;28;20104;-49
2021/09/25 07:11:41;;;;;;;398.65;313.98;;;;;;;26.08;46.63;98682.88;5053299;28;20075;-49
2021/09/25 07:14:07;;;;;;;70.22;52.65;;;;;;;26.54;45.73;98689.09;5054689;28;20462;-48
2021/09/25 07:16:33;;;;;;;46.92;41.88;;;;;;;27.05;44.44;98683.25;5054600;28;20398;-48
2021/09/25 07:18:59;;;;;;;34.95;28.60;;;;;;;27.53;43.82;98686.34;5053449;28;20503;-49
2021/09/25 07:21:24;;;;;;;14.13;7.90;;;;;;;27.59;42.81;98690.50;5054513;28;20029;-49
2021/09/25 07:23:50;;;;;;;12.75;4.88;;;;;;;27.25;43.01;98691.97;5052753;28;20056;-49
2021/09/25 07:26:16;;;;;;;9.48;4.75;;;;;;;27.09;43.76;98699.63;5054390;28;20033;-49
2021/09/25 07:28:42;;;;;;;10.45;4.47;;;;;;;27.11;43.65;98697.41;5054302;28;20021;-49
2021/09/25 07:31:09;;;;;;;7.40;4.00;;;;;;;27.01;44.25;98703.06;5054299;28;20100;-49
2021/09/25 07:33:35;;;;;;;9.23;4.68;;;;;;;26.73;44.59;98697.81;5054315;28;20021;-49
2021/09/25 07:36:02;;;;;;;7.10;4.53;;;;;;;26.86;45.13;98690.75;5054213;28;20029;-48
2021/09/25 07:38:28;;;;;;;10.57;5.85;;;;;;;27.22;44.14;98692.53;5054200;28;20032;-49
2021/09/25 07:40:56;;;;;;;11.40;4.68;;;;;;;27.51;43.58;98700.16;5052775;28;20029;-49
2021/09/25 07:43:24;;;;;;;11.98;5.28;;;;;;;28.66;40.91;98702.72;5054111;28;20118;-49
2021/09/25 07:45:50;;;;;;;12.93;10.25;;;;;;;29.63;38.14;98704.81;5054006;28;20025;-49
2021/09/25 07:48:16;;;;;;;9.10;4.70;;;;;;;30.13;36.98;98694.34;5054015;28;20463;-49
2021/09/25 07:50:42;;;;;;;8.27;3.83;;;;;;;30.24;34.43;98687.41;5052632;28;20107;-49
2021/09/25 07:53:08;;;;;;;5.63;4.40;;;;;;;29.88;35.54;98696.88;5052628;28;20033;-49
2021/09/25 07:55:34;;;;;;;6.70;5.47;;;;;;;29.62;35.41;98697.00;5053886;28;20104;-49
2021/09/25 07:58:00;;;;;;;5.65;3.20;;;;;;;29.40;35.72;98701.59;5054057;28;20048;-51
2021/09/25 08:00:26;;;;;;;5.72;3.58;;;;;;;29.25;35.78;98710.22;5053776;28;20025;-51
2021/09/25 08:02:52;;;;;;;5.70;4.25;;;;;;;29.63;35.83;98704.81;5053699;28;20407;-51
2021/09/25 08:05:18;;;;;;;10.48;3.78;;;;;;;29.90;34.50;98715.50;5053694;28;20036;-51
2021/09/25 08:07:45;;;;;;;7.00;3.38;;;;;;;29.63;35.38;98710.22;5052459;28;20046;-51
2021/09/25 08:10:13;;;;;;;8.43;3.55;;;;;;;29.51;34.50;98715.53;5053576;28;20056;-50
2021/09/25 08:12:39;;;;;;;4.10;2.83;;;;;;;29.47;34.96;98720.00;5053768;28;20052;-51
2021/09/25 08:15:07;;;;;;;5.15;3.60;;;;;;;29.65;34.74;98720.72;5053530;28;20441;-51
2021/09/25 08:17:33;;;;;;;4.95;3.70;;;;;;;29.72;34.50;98718.31;5052025;28;20056;-52
2021/09/25 08:19:59;;;;;;;5.57;3.28;;;;;;;29.91;34.42;98711.69;5052073;28;20073;-51
2021/09/25 08:22:24;;;;;;;5.10;2.80;;;;;;;30.10;34.37;98717.44;5053114;28;20044;-52
2021/09/25 08:24:50;;;;;;;8.40;4.13;;;;;;;30.50;34.13;98713.50;5053340;28;20126;-51
2021/09/25 08:27:16;;;;;;;7.82;3.83;;;;;;;31.04;32.91;98716.19;5051853;28;20087;-51
2021/09/25 08:29:42;;;;;;;10.75;4.80;;;;;;;31.50;32.36;98716.19;5051904;28;20395;-51
2021/09/25 08:32:08;;;;;;;5.13;3.35;;;;;;;32.27;31.41;98721.63;5053195;28;20398;-51
2021/09/25 08:34:36;;;;;;;5.30;3.50;;;;;;;32.49;30.05;98714.88;5052137;28;20045;-49
2021/09/25 08:37:03;;;;;;;5.07;3.08;;;;;;;31.91;31.02;98714.34;5053059;28;20504;-49
2021/09/25 08:39:29;;;;;;;4.90;3.33;;;;;;;31.66;31.49;98719.78;5053071;28;20028;-49
2021/09/25 08:41:55;;;;;;;5.43;3.20;;;;;;;31.56;31.85;98715.59;5052922;28;20063;-49
2021/09/25 08:44:22;;;;;;;5.85;3.63;;;;;;;31.63;31.52;98723.16;5052918;28;20029;-49
2021/09/25 08:46:53;;;;;;;5.28;3.42;;;;;;;31.40;32.50;98729.00;5052910;28;20104;-49
2021/09/25 08:49:19;;;;;;;6.32;3.38;;;;;;;31.80;32.85;98730.31;5052796;28;20028;-49
2021/09/25 08:51:45;;;;;;;11.25;2.97;;;;;;;32.77;31.06;98738.59;5051446;28;20562;-49
2021/09/25 08:54:11;;;;;;;5.22;3.15;;;;;;;33.65;29.58;98743.19;5051441;28;20522;-49
2021/09/25 08:56:38;;;;;;;7.03;2.95;;;;;;;34.16;29.28;98743.97;5051365;28;20486;-49
2021/09/25 08:59:07;;;;;;;3.53;2.80;;;;;;;34.65;28.25;98739.09;5051362;28;20029;-49
2021/09/25 09:01:33;;;;;;;6.25;3.13;;;;;;;34.70;27.89;98733.41;5051266;28;20467;-49
2021/09/25 09:04:00;;;;;;;6.47;3.28;;;;;;;34.19;28.23;98737.03;5051270;28;20032;-49
2021/09/25 09:06:38;;;;;;;5.53;3.70;;;;;;;33.32;29.23;98739.63;5052475;28;20119;-49
2021/09/25 09:09:07;;;;;;;6.70;3.50;;;;;;;32.63;29.96;98747.13;5052450;28;20056;-49
2021/09/25 09:11:35;;;;;;;5.63;3.20;;;;;;;32.56;30.47;98747.72;5052383;28;20021;-49
2021/09/25 09:14:03;;;;;;;9.02;3.65;;;;;;;32.61;30.21;98747.47;5051140;28;20498;-49
2021/09/25 09:16:30;;;;;;;3.22;2.92;;;;;;;32.39;30.40;98747.97;5052358;28;20387;-49
2021/09/25 09:18:58;;;;;;;4.10;3.25;;;;;;;31.89;30.91;98749.94;5050762;28;20025;-49
2021/09/25 09:21:31;;;;;;;8.85;3.65;;;;;;;30.76;32.82;98754.69;5052291;28;20013;-49
2021/09/25 09:24:05;;;;;;;8.95;3.65;;;;;;;29.93;34.77;98750.03;5052084;28;20098;-51
2021/09/25 09:26:37;;;;;;;4.57;3.28;;;;;;;29.47;35.50;98761.34;5052245;28;20040;-51
2021/09/25 09:29:05;;;;;;;7.05;4.68;;;;;;;29.16;36.31;98761.63;5052064;28;20031;-51
2021/09/25 09:31:30;;;;;;;11.32;4.85;;;;;;;29.08;36.41;98757.78;5050743;28;20029;-51
2021/09/25 09:34:04;;;;;;;9.80;5.00;;;;;;;29.03;36.92;98747.13;5052063;28;20029;-51
2021/09/25 09:36:35;;;;;;;9.73;5.47;;;;;;;29.26;36.37;98744.25;5052069;28;20100;-51
2021/09/25 09:39:18;;;;;;;9.38;3.72;;;;;;;29.30;36.18;98747.91;5034142;28;20438;-50
2021/09/25 09:41:58;;;;;;;14.85;4.65;;;;;;;28.93;36.44;98746.69;5050672;28;20025;-51
2021/09/25 09:44:29;;;;;;;8.90;4.85;;;;;;;28.53;37.99;98753.06;5051931;28;20024;-51
2021/09/25 09:47:10;;;;;;;10.60;4.28;;;;;;;28.37;38.38;98738.41;5051924;28;20033;-51
2021/09/25 09:49:41;;;;;;;9.15;3.25;;;;;;;28.72;37.10;98736.53;5051844;28;20116;-51
2021/09/25 09:52:13;;;;;;;6.47;3.53;;;;;;;29.14;36.83;98731.41;5051767;28;20029;-51
2021/09/25 09:54:44;;;;;;;14.05;4.93;;;;;;;29.50;36.08;98726.66;5051735;28;20029;-50
2021/09/25 09:57:18;;;;;;;12.98;6.75;;;;;;;30.45;35.22;98712.59;5051758;28;20376;-51
2021/09/25 09:59:46;;;;;;;4.15;2.92;;;;;;;31.31;32.97;98722.91;5051844;28;20491;-51
2021/09/25 10:02:11;;;;;;;7.65;2.95;;;;;;;31.69;32.92;98727.22;5051713;28;20491;-51
2021/09/25 10:04:38;;;;;;;6.95;3.47;;;;;;;32.89;30.79;98719.47;5051688;28;20022;-50
2021/09/25 10:07:04;;;;;;;7.82;3.30;;;;;;;33.03;29.69;98702.75;5050333;28;20056;-49
2021/09/25 10:09:33;;;;;;;6.32;2.90;;;;;;;33.07;30.02;98711.00;5051585;28;20048;-49
2021/09/25 10:12:01;;;;;;;33.25;29.77;;;;;;;33.48;29.68;98706.97;5051612;28;20461;-49
2021/09/25 10:14:30;;;;;;;6.50;2.70;;;;;;;33.90;27.84;98706.41;5051599;28;20024;-49
2021/09/25 10:16:59;;;;;;;4.15;2.17;;;;;;;33.67;28.51;98714.47;5051565;28;20025;-49
2021/09/25 10:19:27;;;;;;;9.68;3.78;;;;;;;33.74;27.78;98713.81;5050233;28;20029;-49
2021/09/25 10:22:04;;;;;;;7.18;3.55;;;;;;;33.72;28.29;98714.19;5051499;28;20029;-49
2021/09/25 10:24:36;;;;;;;9.88;2.50;;;;;;;33.78;27.18;98703.81;5050998;28;20426;-49
2021/09/25 10:27:04;;;;;;;4.72;2.58;;;;;;;33.47;28.29;98701.91;5050518;28;20036;-49
2021/09/25 10:29:31;;;;;;;4.18;2.08;;;;;;;33.49;27.83;98700.41;5050045;28;20025;-49
2021/09/25 10:32:23;;;;;;;3.53;2.20;;;;;;;33.69;27.76;98690.41;5054136;28;20021;-49
2021/09/25 10:35:10;;;;;;;6.75;2.67;;;;;;;33.89;28.09;98693.16;5055334;28;20419;-49
2021/09/25 10:37:45;;;;;;;3.95;2.10;;;;;;;34.55;26.95;98702.31;5055328;28;20017;-49
2021/09/25 10:40:32;;;;;;;6.53;2.33;;;;;;;34.18;27.32;98686.41;5055316;28;20518;-49
2021/09/25 10:43:00;;;;;;;5.32;2.38;;;;;;;33.48;28.37;98689.88;5055230;28;20017;-49
2021/09/25 10:45:29;;;;;;;7.97;3.83;;;;;;;32.77;29.49;98678.78;5055162;28;20738;-49
2021/09/25 10:48:19;;;;;;;3.97;2.38;;;;;;;33.44;29.38;98678.91;5055112;28;20075;-49
2021/09/25 10:50:51;;;;;;;3.78;2.60;;;;;;;34.21;26.59;98680.25;5055063;28;20033;-49
2021/09/25 10:53:20;;;;;;;8.68;2.83;;;;;;;33.93;26.76;98672.25;5055067;28;20029;-50
2021/09/25 10:55:48;;;;;;;5.93;1.90;;;;;;;32.55;27.45;98672.78;5055059;28;20036;-49
2021/09/25 10:58:25;;;;;;;3.25;2.13;;;;;;;30.93;31.17;98685.22;5055015;28;20021;-49
2021/09/25 11:01:05;;;;;;;9.23;2.20;;;;;;;30.09;31.70;98685.31;5054968;28;20033;-49
2021/09/25 11:06:15;;;;;;;9.32;2.28;;;;;;;29.66;33.12;98677.13;5055120;28;20037;-51
2021/09/25 11:08:51;;;;;;;5.20;2.00;;;;;;;29.40;33.06;98673.72;5053491;28;20553;-51
2021/09/25 11:11:19;;;;;;;4.82;1.95;;;;;;;29.36;32.93;98678.19;5054870;28;20108;-51
2021/09/25 11:14:00;;;;;;;3.60;2.00;;;;;;;29.33;32.91;98676.16;5054741;28;20075;-51
2021/09/25 11:17:14;;;;;;;4.35;1.73;;;;;;;29.58;32.71;98659.03;5053316;28;20495;-51
2021/09/25 11:19:43;;;;;;;4.60;1.95;;;;;;;29.54;32.55;98673.50;5052383;28;20055;-51
2021/09/25 11:22:11;;;;;;;6.00;2.13;;;;;;;29.03;33.84;98666.06;5053249;28;20455;-50
2021/09/25 11:24:45;;;;;;;6.10;2.15;;;;;;;28.75;34.24;98657.56;5054338;28;20049;-51
2021/09/25 11:27:21;;;;;;;8.00;2.10;;;;;;;28.85;34.36;98668.00;5053203;28;20186;-51
2021/09/25 11:30:08;;;;;;;3.40;2.53;;;;;;;29.44;33.71;98666.59;5054479;28;20029;-51
2021/09/25 11:32:52;;;;;;;6.78;2.17;;;;;;;29.83;33.16;98643.75;5054402;28;20021;-51